createdAt,value
2018-12-23T00:00:52.136Z,16.40
2018-12-23T00:03:19.352Z,13.17
2018-12-23T00:05:46.584Z,10.63
2018-12-23T00:08:13.792Z,8.95
2018-12-23T00:10:41.016Z,10.32
2018-12-23T00:13:08.250Z,10.85
2018-12-23T00:15:35.496Z,10.30
2018-12-23T00:18:02.709Z,4.00
2018-12-23T00:20:29.930Z,6.83
2018-12-23T00:22:57.125Z,9.00
2018-12-23T00:25:24.344Z,11.78
2018-12-23T00:27:51.567Z,11.85
2018-12-23T00:30:18.819Z,11.10
2018-12-23T00:32:46.024Z,8.08
2018-12-23T00:35:20.341Z,10.13
2018-12-23T00:37:42.465Z,9.47
2018-12-23T00:40:09.926Z,12.90
2018-12-23T00:42:37.140Z,7.70
2018-12-23T00:45:05.080Z,5.33
2018-12-23T00:47:32.298Z,8.13
2018-12-23T00:49:59.519Z,7.70
2018-12-23T00:52:26.744Z,11.30
2018-12-23T00:54:53.976Z,5.47
2018-12-23T00:57:21.193Z,10.38
2018-12-23T00:59:48.505Z,4.83
2018-12-23T01:02:15.864Z,10.07
2018-12-23T01:04:43.104Z,8.80
2018-12-23T01:07:10.354Z,6.90
2018-12-23T01:09:37.681Z,7.87
2018-12-23T01:12:07.157Z,5.28
2018-12-23T01:14:37.121Z,5.87
2018-12-23T01:17:05.425Z,5.65
2018-12-23T01:19:32.665Z,11.27
2018-12-23T01:22:00.945Z,6.92
2018-12-23T01:24:28.157Z,11.45
2018-12-23T01:26:55.368Z,9.30
2018-12-23T01:29:22.582Z,6.40
2018-12-23T01:31:49.816Z,11.70
2018-12-23T01:34:17.028Z,12.50
2018-12-23T01:36:46.321Z,5.47
2018-12-23T01:39:13.528Z,8.50
2018-12-23T01:41:40.856Z,9.50
2018-12-23T01:44:09.081Z,9.63
2018-12-23T01:46:36.429Z,7.58
2018-12-23T01:49:04.880Z,6.90
2018-12-23T01:51:32.093Z,9.33
2018-12-23T01:53:59.311Z,12.73
2018-12-23T01:56:27.691Z,12.18
2018-12-23T01:58:55.088Z,9.83
2018-12-23T02:01:22.415Z,9.20
2018-12-23T02:03:49.637Z,13.32
2018-12-23T02:06:16.968Z,4.78
2018-12-23T02:08:46.209Z,13.43
2018-12-23T02:11:13.420Z,5.20
2018-12-23T02:13:40.638Z,5.47
2018-12-23T02:16:07.854Z,11.33
2018-12-23T02:18:35.069Z,14.70
2018-12-23T02:21:02.345Z,8.50
2018-12-23T02:23:29.574Z,7.10
2018-12-23T02:25:56.771Z,13.22
2018-12-23T02:28:24.183Z,6.65
2018-12-23T02:30:51.395Z,9.80
2018-12-23T02:33:18.651Z,7.17
2018-12-23T02:35:55.273Z,6.05
2018-12-23T02:38:15.112Z,8.83
2018-12-23T02:40:42.331Z,9.05
2018-12-23T02:43:09.605Z,9.55
2018-12-23T02:45:36.822Z,13.50
2018-12-23T02:48:04.047Z,14.53
2018-12-23T02:50:31.383Z,8.53
2018-12-23T02:52:58.627Z,6.78
2018-12-23T02:55:25.860Z,9.85
2018-12-23T02:57:53.071Z,8.13
2018-12-23T03:00:20.511Z,7.33
2018-12-23T03:02:47.824Z,10.40
2018-12-23T03:05:15.040Z,8.13
2018-12-23T03:07:42.240Z,10.40
2018-12-23T03:10:09.723Z,9.95
2018-12-23T03:12:37.052Z,13.18
2018-12-23T03:15:04.535Z,10.65
2018-12-23T03:17:31.754Z,6.80
2018-12-23T03:19:59.120Z,14.28
2018-12-23T03:22:26.460Z,7.65
2018-12-23T03:24:54.836Z,10.88
2018-12-23T03:27:22.055Z,9.50
2018-12-23T03:29:49.273Z,10.55
2018-12-23T03:32:16.619Z,9.65
2018-12-23T03:34:43.835Z,11.83
2018-12-23T03:37:11.196Z,5.87
2018-12-23T03:39:38.503Z,9.60
2018-12-23T03:42:05.720Z,7.03
2018-12-23T03:44:32.938Z,13.15
2018-12-23T03:47:00.162Z,10.98
2018-12-23T03:49:27.543Z,7.17
2018-12-23T03:51:54.756Z,14.13
2018-12-23T03:54:22.117Z,5.97
2018-12-23T03:56:49.377Z,11.50
2018-12-23T03:59:16.709Z,8.00
2018-12-23T04:01:43.934Z,8.20
2018-12-23T04:04:11.139Z,13.08
2018-12-23T04:06:38.383Z,10.78
2018-12-23T04:09:05.944Z,11.78
2018-12-23T04:11:33.155Z,10.88
2018-12-23T04:14:00.356Z,11.90
2018-12-23T04:16:27.636Z,9.98
2018-12-23T04:18:54.911Z,12.78
2018-12-23T04:21:22.148Z,13.78
2018-12-23T04:23:49.475Z,5.42
2018-12-23T04:26:16.681Z,6.85
2018-12-23T04:28:43.957Z,6.77
2018-12-23T04:31:11.164Z,12.20
2018-12-23T04:33:38.430Z,9.63
2018-12-23T04:36:05.732Z,9.98
2018-12-23T04:38:33.110Z,8.55
2018-12-23T04:41:00.442Z,9.80
2018-12-23T04:43:27.784Z,5.85
2018-12-23T04:45:54.993Z,12.20
2018-12-23T04:48:22.225Z,11.78
2018-12-23T04:50:49.444Z,8.70
2018-12-23T04:53:16.660Z,10.30
2018-12-23T04:55:43.876Z,8.95
2018-12-23T04:58:11.107Z,12.00
2018-12-23T05:00:38.370Z,13.40
2018-12-23T05:03:05.583Z,12.20
2018-12-23T05:05:32.772Z,8.90
2018-12-23T05:08:00.003Z,10.72
2018-12-23T05:10:27.196Z,9.00
2018-12-23T05:12:54.489Z,9.60
2018-12-23T05:15:21.855Z,7.47
2018-12-23T05:17:49.286Z,7.55
2018-12-23T05:20:16.612Z,14.38
2018-12-23T05:22:43.952Z,10.93
2018-12-23T05:25:11.199Z,9.65
2018-12-23T05:27:38.425Z,11.28
2018-12-23T05:30:05.981Z,10.30
2018-12-23T05:32:33.316Z,6.87
2018-12-23T05:35:00.839Z,12.35
2018-12-23T05:37:28.066Z,8.10
2018-12-23T05:39:55.404Z,11.00
2018-12-23T05:42:23.721Z,6.00
2018-12-23T05:44:50.939Z,12.47
2018-12-23T05:47:18.356Z,6.17
2018-12-23T05:49:45.716Z,12.00
2018-12-23T05:52:12.924Z,9.68
2018-12-23T05:54:40.139Z,9.23
2018-12-23T05:57:07.353Z,10.48
2018-12-23T05:59:34.580Z,9.13
2018-12-23T06:02:01.796Z,8.08
2018-12-23T06:04:29.026Z,13.15
2018-12-23T06:07:00.969Z,8.60
2018-12-23T06:09:25.496Z,12.30
2018-12-23T06:11:52.720Z,4.85
2018-12-23T06:14:19.922Z,6.28
2018-12-23T06:16:47.150Z,9.50
2018-12-23T06:19:14.348Z,13.37
2018-12-23T06:21:41.571Z,9.98
2018-12-23T06:24:08.766Z,8.70
2018-12-23T06:26:36.093Z,7.53
2018-12-23T06:29:03.409Z,9.45
2018-12-23T06:31:30.632Z,8.78
2018-12-23T06:33:58.861Z,11.73
2018-12-23T06:36:26.075Z,6.10
2018-12-23T06:38:53.283Z,12.20
2018-12-23T06:41:20.497Z,6.05
2018-12-23T06:43:47.693Z,11.83
2018-12-23T06:46:14.900Z,6.50
2018-12-23T06:48:43.201Z,19.70
2018-12-23T06:51:10.468Z,9.45
2018-12-23T06:53:37.669Z,9.97
2018-12-23T06:56:04.905Z,13.32
2018-12-23T06:58:32.236Z,5.57
2018-12-23T07:00:59.472Z,9.05
2018-12-23T07:03:26.800Z,8.20
2018-12-23T07:05:54.052Z,9.78
2018-12-23T07:08:21.256Z,11.83
2018-12-23T07:10:48.464Z,9.08
2018-12-23T07:13:15.724Z,7.62
2018-12-23T07:15:42.931Z,8.93
2018-12-23T07:18:10.285Z,10.25
2018-12-23T07:20:37.733Z,9.33
2018-12-23T07:23:04.939Z,9.90
2018-12-23T07:25:32.153Z,7.27
2018-12-23T07:27:59.381Z,6.37
2018-12-23T07:30:30.085Z,10.53
2018-12-23T07:32:57.304Z,15.07
2018-12-23T07:35:24.572Z,4.53
2018-12-23T07:37:51.780Z,6.07
2018-12-23T07:40:19.113Z,8.88
2018-12-23T07:42:46.341Z,9.38
2018-12-23T07:45:13.665Z,7.20
2018-12-23T07:47:40.860Z,7.60
2018-12-23T07:50:08.180Z,8.13
2018-12-23T07:52:35.411Z,9.70
2018-12-23T07:55:13.712Z,8.30
2018-12-23T07:57:40.933Z,5.40
2018-12-23T08:00:08.289Z,5.37
2018-12-23T08:02:41.404Z,17.15
2018-12-23T08:05:08.717Z,6.33
2018-12-23T08:07:36.350Z,10.00
2018-12-23T08:10:05.059Z,7.97
2018-12-23T08:12:32.263Z,15.00
2018-12-23T08:14:59.788Z,12.97
2018-12-23T08:17:27.028Z,3.90
2018-12-23T08:19:54.272Z,9.05
2018-12-23T08:22:21.499Z,5.47
2018-12-23T08:24:48.735Z,6.50
2018-12-23T08:27:15.947Z,9.70
2018-12-23T08:29:43.188Z,11.28
2018-12-23T08:32:10.445Z,6.95
2018-12-23T08:34:37.680Z,8.28
2018-12-23T08:37:04.917Z,9.80
2018-12-23T08:39:32.162Z,17.45
2018-12-23T08:41:59.448Z,10.20
2018-12-23T08:44:31.040Z,11.67
2018-12-23T08:46:58.377Z,13.03
2018-12-23T08:49:25.643Z,9.60
2018-12-23T08:51:52.852Z,16.55
2018-12-23T08:54:20.137Z,5.92
2018-12-23T08:56:47.489Z,13.20
2018-12-23T08:59:15.861Z,8.63
2018-12-23T09:01:45.146Z,14.90
2018-12-23T09:04:12.552Z,13.37
2018-12-23T09:06:39.952Z,12.47
2018-12-23T09:09:08.331Z,12.00
2018-12-23T09:11:42.663Z,9.30
2018-12-23T09:14:04.948Z,7.37
2018-12-23T09:16:32.213Z,10.10
2018-12-23T09:18:59.460Z,11.80
2018-12-23T09:21:26.809Z,15.93
2018-12-23T09:23:54.066Z,9.03
2018-12-23T09:26:21.417Z,13.60
2018-12-23T09:28:48.698Z,14.75
2018-12-23T09:31:15.970Z,11.33
2018-12-23T09:33:43.226Z,11.47
2018-12-23T09:36:10.666Z,14.10
2018-12-23T09:38:37.872Z,12.00
2018-12-23T09:41:05.224Z,9.40
2018-12-23T09:43:32.707Z,14.63
2018-12-23T09:45:59.981Z,9.03
2018-12-23T09:48:27.232Z,14.50
2018-12-23T09:50:54.539Z,15.03
2018-12-23T09:53:21.876Z,8.75
2018-12-23T09:55:49.123Z,9.97
2018-12-23T09:58:16.352Z,10.53
2018-12-23T10:00:43.577Z,12.30
2018-12-23T10:03:10.790Z,8.73
2018-12-23T10:05:38.132Z,9.78
2018-12-23T10:08:09.913Z,9.07
2018-12-23T10:10:34.627Z,14.47
2018-12-23T10:13:02.447Z,15.70
2018-12-23T10:15:29.836Z,12.70
2018-12-23T10:17:57.203Z,10.63
2018-12-23T10:20:24.548Z,11.50
2018-12-23T10:22:51.860Z,10.70
2018-12-23T10:25:19.259Z,14.80
2018-12-23T10:27:46.465Z,10.47
2018-12-23T10:30:13.704Z,13.00
2018-12-23T10:32:40.912Z,8.67
2018-12-23T10:35:08.212Z,10.33
2018-12-23T10:37:35.411Z,11.63
2018-12-23T10:40:02.973Z,15.03
2018-12-23T10:42:30.721Z,10.00
2018-12-23T10:44:58.047Z,9.00
2018-12-23T10:47:25.243Z,9.73
2018-12-23T10:49:52.451Z,17.53
2018-12-23T10:52:19.714Z,10.53
2018-12-23T10:54:46.925Z,15.23
2018-12-23T10:57:14.132Z,9.97
2018-12-23T10:59:41.341Z,15.67
2018-12-23T11:02:13.621Z,9.60
2018-12-23T11:04:37.808Z,14.23
2018-12-23T11:07:04.991Z,15.57
2018-12-23T11:09:32.321Z,15.97
2018-12-23T11:11:59.644Z,9.17
2018-12-23T11:14:26.837Z,11.27
2018-12-23T11:16:54.177Z,12.93
2018-12-23T11:19:21.580Z,11.50
2018-12-23T11:21:48.841Z,15.50
2018-12-23T11:24:16.130Z,10.77
2018-12-23T11:26:43.565Z,8.13
2018-12-23T11:29:10.828Z,9.00
2018-12-23T11:31:38.032Z,11.50
2018-12-23T11:34:05.283Z,8.77
2018-12-23T11:36:32.500Z,14.77
2018-12-23T11:38:59.704Z,18.23
2018-12-23T11:41:26.894Z,18.17
2018-12-23T11:43:54.349Z,8.60
2018-12-23T11:46:21.723Z,18.73
2018-12-23T11:48:49.204Z,11.90
2018-12-23T11:51:17.368Z,15.00
2018-12-23T11:53:44.555Z,11.20
2018-12-23T11:56:11.908Z,18.10
2018-12-23T11:58:39.101Z,15.87
2018-12-23T12:01:06.321Z,19.73
2018-12-23T12:03:33.515Z,13.77
2018-12-23T12:06:00.800Z,16.03
2018-12-23T12:08:27.972Z,13.33
2018-12-23T12:10:55.285Z,19.13
2018-12-23T12:13:22.547Z,10.57
2018-12-23T12:15:49.736Z,10.87
2018-12-23T12:18:16.953Z,10.07
2018-12-23T12:20:44.249Z,15.00
2018-12-23T12:23:11.436Z,18.40
2018-12-23T12:25:38.644Z,12.23
2018-12-23T12:28:06.125Z,11.70
2018-12-23T12:30:33.784Z,12.53
2018-12-23T12:33:01.059Z,12.30
2018-12-23T12:35:28.951Z,11.80
2018-12-23T12:37:56.153Z,19.83
2018-12-23T12:40:23.388Z,10.10
2018-12-23T12:42:50.593Z,8.80
2018-12-23T12:45:17.820Z,10.23
2018-12-23T12:47:45.040Z,6.67
2018-12-23T12:50:12.265Z,9.37
2018-12-23T12:52:39.688Z,15.23
2018-12-23T12:55:06.868Z,11.60
2018-12-23T12:57:34.237Z,13.00
2018-12-23T13:00:01.437Z,11.10
2018-12-23T13:02:28.756Z,13.70
2018-12-23T13:04:56.026Z,12.20
2018-12-23T13:07:23.212Z,11.13
2018-12-23T13:09:50.418Z,16.20
2018-12-23T13:12:17.638Z,14.20
2018-12-23T13:14:44.905Z,11.97
2018-12-23T13:17:12.307Z,8.57
2018-12-23T13:19:39.500Z,8.67
2018-12-23T13:22:06.797Z,8.83
2018-12-23T13:24:34.177Z,14.97
2018-12-23T13:27:01.407Z,11.40
2018-12-23T13:29:28.601Z,14.87
2018-12-23T13:31:55.801Z,8.70
2018-12-23T13:34:23.087Z,10.40
2018-12-23T13:36:50.315Z,14.10
2018-12-23T13:39:17.562Z,8.63
2018-12-23T13:41:58.984Z,8.30
2018-12-23T13:44:37.971Z,8.37
2018-12-23T13:47:17.868Z,5.70
2018-12-23T13:49:56.529Z,8.43
2018-12-23T13:52:31.527Z,6.83
2018-12-23T13:55:40.620Z,4.80
2018-12-23T13:58:20.444Z,9.93
2018-12-23T14:04:04.836Z,10.43
2018-12-23T14:07:17.610Z,7.10
2018-12-23T14:09:56.447Z,4.80
2018-12-23T14:12:23.636Z,8.90
2018-12-23T14:14:50.892Z,5.67
2018-12-23T14:17:18.234Z,5.70
2018-12-23T14:19:45.465Z,10.90
2018-12-23T14:22:12.784Z,6.00
2018-12-23T14:24:40.073Z,5.00
2018-12-23T14:27:07.350Z,5.20
2018-12-23T14:29:34.601Z,7.43
2018-12-23T14:32:01.930Z,8.83
2018-12-23T14:34:29.123Z,6.37
2018-12-23T14:36:56.333Z,9.20
2018-12-23T14:39:28.257Z,2.92
2018-12-23T14:41:54.588Z,3.90
2018-12-23T14:44:22.003Z,6.90
2018-12-23T14:46:49.251Z,5.03
2018-12-23T14:49:16.521Z,5.20
2018-12-23T14:51:43.849Z,4.40
2018-12-23T14:54:11.148Z,5.73
2018-12-23T14:56:38.376Z,3.43
2018-12-23T14:59:05.579Z,5.70
2018-12-23T15:01:32.787Z,9.07
2018-12-23T15:04:00.121Z,3.40
2018-12-23T15:06:27.320Z,3.92
2018-12-23T15:08:54.624Z,4.67
2018-12-23T15:11:21.838Z,5.93
2018-12-23T15:13:49.040Z,8.40
2018-12-23T15:16:16.235Z,5.23
2018-12-23T15:18:44.528Z,3.73
2018-12-23T15:21:11.716Z,3.90
2018-12-23T15:23:38.937Z,4.13
2018-12-23T15:26:06.223Z,5.20
2018-12-23T15:28:33.499Z,6.93
2018-12-23T15:31:00.705Z,5.90
2018-12-23T15:33:28.213Z,6.60
2018-12-23T15:35:55.524Z,11.00
2018-12-23T15:38:22.840Z,10.70
2018-12-23T15:40:50.037Z,6.43
2018-12-23T15:43:17.221Z,11.77
2018-12-23T15:45:44.532Z,15.33
2018-12-23T15:48:11.769Z,14.57
2018-12-23T15:50:43.710Z,58.67
2018-12-23T15:53:20.025Z,77.77
2018-12-23T15:55:47.413Z,34.50
2018-12-23T15:58:14.747Z,15.63
2018-12-23T16:00:42.022Z,31.27
2018-12-23T16:03:09.702Z,20.73
2018-12-23T16:05:37.101Z,48.33
2018-12-23T16:08:04.304Z,50.37
2018-12-23T16:10:31.517Z,23.00
2018-12-23T16:12:58.824Z,17.63
2018-12-23T16:15:26.020Z,21.97
2018-12-23T16:17:53.220Z,32.07
2018-12-23T16:20:21.069Z,16.13
2018-12-23T16:22:48.260Z,13.83
2018-12-23T16:25:15.596Z,16.40
2018-12-23T16:27:42.785Z,5.37
2018-12-23T16:30:10.301Z,23.80
2018-12-23T16:32:37.489Z,18.40
2018-12-23T16:35:04.750Z,44.30
2018-12-23T16:37:31.961Z,24.60
2018-12-23T16:39:59.673Z,14.17
2018-12-23T16:42:27.056Z,8.03
2018-12-23T16:44:54.254Z,13.98
2018-12-23T16:47:21.447Z,8.40
2018-12-23T16:49:48.639Z,19.70
2018-12-23T16:52:15.969Z,20.85
2018-12-23T16:54:43.168Z,24.87
2018-12-23T16:57:10.398Z,21.37
2018-12-23T16:59:37.592Z,14.20
2018-12-23T17:02:04.917Z,6.60
2018-12-23T17:04:32.117Z,8.43
2018-12-23T17:06:59.416Z,5.70
2018-12-23T17:09:26.610Z,4.50
2018-12-23T17:11:53.828Z,5.80
2018-12-23T17:14:21.017Z,7.00
2018-12-23T17:16:48.213Z,5.00
2018-12-23T17:19:15.407Z,9.13
2018-12-23T17:21:42.600Z,7.35
2018-12-23T17:24:09.805Z,16.30
2018-12-23T17:26:37.003Z,16.23
2018-12-23T17:29:04.204Z,6.43
2018-12-23T17:31:31.389Z,6.80
2018-12-23T17:33:58.595Z,4.75
2018-12-23T17:36:25.804Z,4.53
2018-12-23T17:38:52.991Z,4.63
2018-12-23T17:41:20.244Z,6.23
2018-12-23T17:43:47.488Z,4.87
2018-12-23T17:46:14.836Z,6.37
2018-12-23T17:48:42.049Z,3.93
2018-12-23T17:51:09.239Z,5.33
2018-12-23T17:53:36.437Z,5.10
2018-12-23T17:56:03.671Z,4.37
2018-12-23T17:58:30.867Z,3.87
2018-12-23T18:00:58.373Z,6.47
2018-12-23T18:03:25.716Z,6.40
2018-12-23T18:05:52.909Z,4.97
2018-12-23T18:08:20.091Z,4.13
2018-12-23T18:10:47.318Z,3.47
2018-12-23T18:13:14.521Z,3.90
2018-12-23T18:15:41.771Z,5.30
2018-12-23T18:18:09.023Z,2.50
2018-12-23T18:20:36.344Z,3.83
2018-12-23T18:23:03.609Z,3.73
2018-12-23T18:25:30.801Z,3.03
2018-12-23T18:27:57.985Z,4.50
2018-12-23T18:30:25.189Z,2.93
2018-12-23T18:32:52.403Z,1.93
2018-12-23T18:35:19.599Z,2.40
2018-12-23T18:37:46.835Z,2.10
2018-12-23T18:40:14.253Z,2.37
2018-12-23T18:42:41.444Z,2.70
2018-12-23T18:45:08.882Z,2.43
2018-12-23T18:47:36.085Z,1.93
2018-12-23T18:50:03.689Z,2.33
2018-12-23T18:52:30.919Z,2.90
2018-12-23T18:54:58.173Z,1.70
2018-12-23T18:57:27.153Z,1.90
2018-12-23T18:59:54.375Z,2.08
2018-12-23T19:02:30.196Z,1.60
2018-12-23T19:04:57.396Z,2.10
2018-12-23T19:07:24.656Z,2.20
2018-12-23T19:11:07.833Z,1.80
2018-12-23T19:15:50.292Z,1.93
2018-12-23T19:19:31.454Z,2.43
2018-12-23T19:22:13.615Z,1.95
2018-12-23T19:25:30.340Z,2.40
2018-12-23T19:28:08.864Z,2.73
2018-12-23T19:30:52.431Z,1.70
2018-12-23T19:34:37.577Z,2.80
2018-12-23T19:37:22.730Z,1.50
2018-12-23T19:41:00.341Z,1.60
2018-12-23T19:43:53.725Z,2.40
2018-12-23T19:47:05.565Z,1.70
2018-12-23T19:49:51.134Z,1.70
2018-12-23T19:53:30.093Z,1.93
2018-12-23T19:57:14.261Z,1.47
2018-12-23T20:01:00.057Z,2.00
2018-12-23T20:03:36.256Z,1.80
2018-12-23T20:06:19.111Z,1.97
2018-12-23T20:09:09.721Z,2.00
2018-12-23T20:11:56.146Z,1.60
2018-12-23T20:14:53.404Z,2.90
2018-12-23T20:17:38.868Z,2.03
2018-12-23T20:21:29.924Z,2.83
2018-12-23T20:24:18.537Z,1.80
2018-12-23T20:27:08.961Z,1.43
2018-12-23T20:30:50.303Z,2.37
2018-12-23T20:34:39.599Z,2.10
2018-12-23T20:37:29.672Z,2.20
2018-12-23T20:42:10.546Z,1.60
2018-12-23T20:44:52.073Z,1.97
2018-12-23T20:49:35.196Z,2.00
2018-12-23T20:52:45.997Z,2.00
2018-12-23T20:55:30.248Z,2.17
2018-12-23T20:58:10.436Z,1.70
2018-12-23T21:00:51.148Z,2.40
2018-12-23T21:04:34.653Z,2.70
2018-12-23T21:07:20.917Z,2.77
2018-12-23T21:10:00.969Z,1.70
2018-12-23T21:13:17.998Z,1.90
2018-12-23T21:16:07.157Z,1.77
2018-12-23T21:18:55.286Z,1.70
2018-12-23T21:21:34.121Z,1.83
2018-12-23T21:24:16.836Z,1.40
2018-12-23T21:28:05.699Z,1.43
2018-12-23T21:31:02.320Z,1.93
2018-12-23T21:33:45.731Z,1.93
2018-12-23T21:37:21.698Z,1.80
2018-12-23T21:40:03.821Z,1.30
2018-12-23T21:42:43.224Z,1.50
2018-12-23T21:45:20.428Z,1.50
2018-12-23T21:48:03.128Z,1.60
2018-12-23T21:50:46.230Z,2.20
2018-12-23T21:56:35.852Z,1.30
2018-12-23T21:59:46.218Z,1.60
2018-12-23T22:04:26.968Z,1.37
2018-12-23T22:07:08.080Z,1.30
2018-12-23T22:09:48.457Z,1.57
2018-12-23T22:12:31.007Z,1.70
2018-12-23T22:14:58.184Z,1.50
2018-12-23T22:17:25.421Z,1.50
2018-12-23T22:19:52.612Z,1.53
2018-12-23T22:22:19.867Z,1.30
2018-12-23T22:24:47.051Z,1.20
2018-12-23T22:27:14.248Z,1.70
2018-12-23T22:29:41.420Z,1.10
2018-12-23T22:32:08.626Z,1.67
2018-12-23T22:34:35.839Z,2.60
2018-12-23T22:37:03.034Z,1.93
2018-12-23T22:39:30.230Z,1.40
2018-12-23T22:41:57.418Z,1.60
2018-12-23T22:44:24.611Z,3.67
2018-12-23T22:46:51.791Z,1.30
2018-12-23T22:49:18.980Z,1.37
2018-12-23T22:51:46.191Z,1.67
2018-12-23T22:54:13.389Z,1.40
2018-12-23T22:56:40.688Z,1.23
2018-12-23T22:59:07.887Z,1.40
2018-12-23T23:01:35.211Z,1.47
2018-12-23T23:04:02.657Z,1.17
2018-12-23T23:06:29.860Z,2.90
2018-12-23T23:08:57.112Z,1.57
2018-12-23T23:11:24.296Z,1.33
2018-12-23T23:13:51.535Z,1.10
2018-12-23T23:16:18.840Z,1.43
2018-12-23T23:18:46.087Z,1.50
2018-12-23T23:21:13.384Z,1.47
2018-12-23T23:23:40.580Z,1.30
2018-12-23T23:26:07.861Z,1.30
2018-12-23T23:28:35.055Z,1.13
2018-12-23T23:31:02.405Z,1.10
2018-12-23T23:33:29.597Z,1.93
2018-12-23T23:35:56.787Z,1.30
2018-12-23T23:39:16.917Z,1.90
2018-12-23T23:41:58.504Z,1.17
2018-12-23T23:44:39.149Z,1.37
2018-12-23T23:47:19.242Z,1.10
2018-12-23T23:49:59.191Z,1.30
2018-12-23T23:52:39.507Z,1.77
2018-12-23T23:55:19.798Z,0.90
2018-12-23T23:57:59.968Z,1.50
